createdAt,value
2017-03-17T00:00:47.148Z,10.87
2017-03-17T00:01:47.166Z,10.76
2017-03-17T00:02:47.182Z,10.76
2017-03-17T00:03:47.201Z,10.76
2017-03-17T00:04:47.215Z,10.74
2017-03-17T00:05:47.232Z,10.72
2017-03-17T00:06:47.254Z,10.79
2017-03-17T00:07:47.259Z,10.75
2017-03-17T00:08:47.277Z,10.75
2017-03-17T00:09:47.295Z,10.78
2017-03-17T00:10:47.311Z,10.78
2017-03-17T00:11:47.012Z,10.78
2017-03-17T00:12:47.028Z,10.71
2017-03-17T00:13:47.046Z,10.74
2017-03-17T00:14:47.376Z,10.74
2017-03-17T00:15:47.392Z,10.75
2017-03-17T00:16:47.406Z,10.74
2017-03-17T00:17:47.423Z,10.67
2017-03-17T00:18:47.441Z,10.67
2017-03-17T00:19:47.453Z,10.72
2017-03-17T00:20:47.501Z,10.63
2017-03-17T00:21:47.492Z,10.67
2017-03-17T00:22:47.503Z,10.63
2017-03-17T00:23:47.517Z,10.63
2017-03-17T00:24:47.223Z,10.61
2017-03-17T00:25:47.553Z,10.63
2017-03-17T00:26:47.570Z,10.68
2017-03-17T00:27:47.589Z,10.67
2017-03-17T00:28:47.599Z,10.64
2017-03-17T00:29:47.615Z,10.61
2017-03-17T00:30:47.639Z,10.57
2017-03-17T00:31:47.651Z,10.57
2017-03-17T00:32:47.669Z,10.56
2017-03-17T00:33:47.687Z,10.51
2017-03-17T00:34:47.726Z,10.59
2017-03-17T00:35:47.715Z,10.56
2017-03-17T00:36:47.732Z,10.57
2017-03-17T00:37:47.745Z,10.57
2017-03-17T00:38:47.767Z,10.49
2017-03-17T00:39:47.784Z,10.49
2017-03-17T00:40:47.794Z,10.44
2017-03-17T00:41:47.810Z,10.49
2017-03-17T00:42:47.824Z,10.54
2017-03-17T00:43:47.842Z,10.51
2017-03-17T00:44:47.858Z,10.44
2017-03-17T00:45:47.876Z,10.42
2017-03-17T00:46:47.901Z,10.44
2017-03-17T00:47:47.903Z,10.42
2017-03-17T00:48:47.916Z,10.48
2017-03-17T00:49:47.939Z,10.42
2017-03-17T00:50:47.952Z,10.42
2017-03-17T00:51:47.970Z,10.44
2017-03-17T00:52:47.983Z,10.37
2017-03-17T00:53:47.999Z,10.37
2017-03-17T00:54:48.024Z,10.38
2017-03-17T00:55:48.036Z,10.42
2017-03-17T00:56:48.049Z,10.38
2017-03-17T00:57:48.066Z,10.38
2017-03-17T00:58:48.080Z,10.35
2017-03-17T00:59:48.097Z,10.37
2017-03-17T01:00:48.113Z,10.33
2017-03-17T01:01:48.128Z,10.38
2017-03-17T01:02:48.146Z,10.28
2017-03-17T01:03:48.186Z,10.37
2017-03-17T01:04:48.177Z,10.28
2017-03-17T01:05:48.193Z,10.3
2017-03-17T01:06:48.206Z,10.35
2017-03-17T01:07:47.917Z,10.31
2017-03-17T01:08:48.243Z,10.31
2017-03-17T01:09:48.257Z,10.34
2017-03-17T01:10:48.271Z,10.34
2017-03-17T01:11:48.319Z,10.33
2017-03-17T01:12:48.306Z,10.37
2017-03-17T01:13:48.349Z,10.28
2017-03-17T01:14:48.335Z,10.35
2017-03-17T01:15:48.041Z,10.31
2017-03-17T01:16:48.389Z,10.33
2017-03-17T01:17:48.390Z,10.34
2017-03-17T01:18:48.396Z,10.3
2017-03-17T01:19:48.416Z,10.26
2017-03-17T01:20:48.427Z,10.26
2017-03-17T01:21:48.445Z,10.34
2017-03-17T01:22:48.462Z,10.28
2017-03-17T01:23:48.480Z,10.3
2017-03-17T01:24:48.497Z,10.25
2017-03-17T01:25:48.509Z,10.3
2017-03-17T01:26:48.523Z,10.28
2017-03-17T01:27:48.230Z,10.26
2017-03-17T01:28:48.559Z,10.23
2017-03-17T01:29:48.570Z,10.3
2017-03-17T01:30:48.276Z,10.22
2017-03-17T01:31:48.604Z,10.25
2017-03-17T01:32:48.623Z,10.17
2017-03-17T01:33:48.639Z,10.26
2017-03-17T01:34:48.653Z,10.16
2017-03-17T01:35:48.666Z,10.2
2017-03-17T01:36:48.683Z,10.13
2017-03-17T01:37:48.696Z,10.12
2017-03-17T01:38:48.402Z,10.13
2017-03-17T01:39:48.736Z,10.19
2017-03-17T01:40:48.793Z,10.16
2017-03-17T01:41:48.445Z,10.13
2017-03-17T01:42:48.775Z,10.16
2017-03-17T01:43:48.796Z,10.13
2017-03-17T01:44:48.809Z,10.13
2017-03-17T01:45:48.873Z,10.15
2017-03-17T01:46:48.844Z,10.2
2017-03-17T01:47:48.855Z,10.09
2017-03-17T01:48:48.869Z,10.16
2017-03-17T01:49:48.886Z,10.09
2017-03-17T01:50:48.897Z,10.07
2017-03-17T01:51:48.916Z,10.07
2017-03-17T01:52:48.937Z,10.15
2017-03-17T01:53:48.960Z,10.04
2017-03-17T01:54:48.650Z,9.98
2017-03-17T01:55:48.976Z,9.99
2017-03-17T01:56:48.992Z,10.1
2017-03-17T01:57:49.014Z,10.05
2017-03-17T01:58:49.059Z,10.05
2017-03-17T01:59:49.044Z,10.13
2017-03-17T02:00:49.064Z,10.02
2017-03-17T02:01:49.071Z,10.01
2017-03-17T02:02:49.090Z,9.99
2017-03-17T02:03:49.213Z,10.05
2017-03-17T02:04:48.805Z,9.94
2017-03-17T02:05:49.156Z,9.95
2017-03-17T02:06:49.165Z,10.01
2017-03-17T02:07:49.164Z,9.99
2017-03-17T02:08:49.178Z,9.97
2017-03-17T02:09:49.194Z,9.97
2017-03-17T02:10:49.325Z,9.97
2017-03-17T02:11:49.333Z,9.98
2017-03-17T02:12:48.929Z,9.95
2017-03-17T02:13:49.365Z,9.94
2017-03-17T02:14:49.375Z,9.92
2017-03-17T02:15:49.382Z,9.98
2017-03-17T02:16:49.432Z,9.95
2017-03-17T02:17:49.105Z,9.97
2017-03-17T02:18:49.430Z,9.92
2017-03-17T02:19:49.438Z,9.89
2017-03-17T02:20:49.606Z,9.89
2017-03-17T02:21:49.384Z,9.92
2017-03-17T02:22:49.164Z,9.86
2017-03-17T02:23:49.623Z,9.92
2017-03-17T02:24:49.637Z,9.89
2017-03-17T02:25:49.644Z,9.89
2017-03-17T02:26:49.654Z,9.91
2017-03-17T02:27:49.340Z,9.92
2017-03-17T02:28:49.207Z,9.87
2017-03-17T02:29:49.705Z,9.89
2017-03-17T02:30:49.719Z,9.89
2017-03-17T02:31:49.718Z,9.95
2017-03-17T02:32:49.292Z,9.8
2017-03-17T02:33:49.736Z,9.79
2017-03-17T02:34:49.744Z,9.8
2017-03-17T02:35:49.408Z,9.83
2017-03-17T02:36:49.752Z,9.86
2017-03-17T02:37:49.424Z,9.79
2017-03-17T02:38:49.772Z,9.83
2017-03-17T02:39:49.780Z,9.79
2017-03-17T02:40:49.786Z,9.83
2017-03-17T02:41:49.472Z,9.77
2017-03-17T02:42:49.830Z,9.82
2017-03-17T02:43:49.771Z,9.8
2017-03-17T02:44:49.858Z,9.84
2017-03-17T02:45:49.783Z,9.82
2017-03-17T02:46:49.784Z,9.82
2017-03-17T02:47:49.817Z,9.82
2017-03-17T02:48:49.893Z,9.84
2017-03-17T02:49:49.811Z,9.76
2017-03-17T02:50:49.831Z,9.79
2017-03-17T02:51:49.843Z,9.79
2017-03-17T02:52:49.757Z,9.74
2017-03-17T02:53:49.563Z,9.83
2017-03-17T02:54:49.886Z,9.76
2017-03-17T02:55:49.900Z,9.76
2017-03-17T02:56:49.906Z,9.76
2017-03-17T02:57:49.625Z,9.79
2017-03-17T02:58:49.942Z,9.77
2017-03-17T02:59:49.956Z,9.77
2017-03-17T03:00:49.969Z,9.76
2017-03-17T03:01:49.989Z,9.73
2017-03-17T03:02:50.129Z,9.73
2017-03-17T03:03:49.801Z,9.64
2017-03-17T03:04:49.745Z,9.69
2017-03-17T03:05:50.048Z,9.69
2017-03-17T03:06:49.756Z,9.66
2017-03-17T03:07:50.092Z,9.62
2017-03-17T03:08:49.819Z,9.66
2017-03-17T03:09:50.215Z,9.65
2017-03-17T03:10:50.224Z,9.76
2017-03-17T03:11:50.141Z,9.65
2017-03-17T03:12:50.156Z,9.8
2017-03-17T03:13:49.860Z,9.64
2017-03-17T03:14:50.189Z,9.64
2017-03-17T03:15:50.194Z,9.8
2017-03-17T03:16:49.907Z,9.77
2017-03-17T03:17:50.234Z,9.66
2017-03-17T03:18:50.255Z,9.76
2017-03-17T03:19:50.293Z,9.79
2017-03-17T03:20:50.271Z,9.77
2017-03-17T03:21:50.315Z,9.79
2017-03-17T03:22:50.311Z,9.72
2017-03-17T03:23:50.321Z,9.76
2017-03-17T03:24:50.341Z,9.79
2017-03-17T03:25:50.351Z,9.65
2017-03-17T03:26:50.371Z,9.65
2017-03-17T03:27:50.383Z,9.76
2017-03-17T03:28:50.404Z,9.62
2017-03-17T03:29:50.412Z,9.74
2017-03-17T03:30:50.114Z,9.68
2017-03-17T03:31:49.822Z,9.76
2017-03-17T03:32:50.456Z,9.77
2017-03-17T03:33:50.482Z,9.69
2017-03-17T03:34:50.174Z,9.74
2017-03-17T03:35:50.501Z,9.69
2017-03-17T03:36:50.514Z,9.66
2017-03-17T03:37:50.533Z,9.76
2017-03-17T03:38:50.546Z,9.68
2017-03-17T03:39:50.562Z,9.68
2017-03-17T03:40:50.581Z,9.66
2017-03-17T03:41:50.596Z,9.62
2017-03-17T03:42:50.611Z,9.69
2017-03-17T03:43:50.626Z,9.65
2017-03-17T03:44:50.332Z,9.65
2017-03-17T03:45:50.653Z,9.72
2017-03-17T03:46:50.362Z,9.73
2017-03-17T03:47:50.688Z,9.66
2017-03-17T03:48:50.706Z,9.61
2017-03-17T03:49:50.719Z,9.64
2017-03-17T03:50:50.411Z,9.65
2017-03-17T03:51:50.750Z,9.73
2017-03-17T03:52:50.760Z,9.65
2017-03-17T03:53:50.777Z,9.68
2017-03-17T03:54:50.788Z,9.68
2017-03-17T03:55:50.803Z,9.61
2017-03-17T03:56:50.822Z,9.64
2017-03-17T03:57:50.837Z,9.68
2017-03-17T03:58:50.850Z,9.68
2017-03-17T03:59:50.238Z,9.59
2017-03-17T04:00:50.881Z,9.68
2017-03-17T04:01:50.579Z,9.55
2017-03-17T04:02:50.916Z,9.58
2017-03-17T04:03:50.625Z,9.61
2017-03-17T04:04:50.630Z,9.61
2017-03-17T04:05:50.957Z,9.59
2017-03-17T04:06:50.979Z,9.56
2017-03-17T04:07:50.988Z,9.69
2017-03-17T04:08:51.002Z,9.65
2017-03-17T04:09:51.015Z,9.54
2017-03-17T04:10:51.029Z,9.58
2017-03-17T04:11:51.047Z,9.61
2017-03-17T04:12:51.065Z,9.59
2017-03-17T04:13:51.078Z,9.54
2017-03-17T04:14:51.090Z,9.54
2017-03-17T04:15:51.104Z,9.59
2017-03-17T04:16:51.121Z,9.55
2017-03-17T04:17:51.139Z,9.59
2017-03-17T04:18:51.158Z,9.56
2017-03-17T04:19:51.170Z,9.58
2017-03-17T04:20:51.177Z,9.55
2017-03-17T04:21:51.192Z,9.55
2017-03-17T04:22:51.236Z,9.55
2017-03-17T04:23:50.604Z,9.56
2017-03-17T04:24:50.924Z,9.62
2017-03-17T04:25:50.944Z,9.58
2017-03-17T04:26:51.269Z,9.56
2017-03-17T04:27:51.291Z,9.51
2017-03-17T04:28:51.308Z,9.51
2017-03-17T04:29:51.319Z,9.61
2017-03-17T04:30:51.018Z,9.59
2017-03-17T04:31:51.415Z,9.56
2017-03-17T04:32:51.120Z,9.59
2017-03-17T04:33:51.432Z,9.61
2017-03-17T04:34:51.436Z,9.56
2017-03-17T04:35:51.438Z,9.59
2017-03-17T04:36:51.105Z,9.59
2017-03-17T04:37:51.153Z,9.5
2017-03-17T04:38:51.470Z,9.54
2017-03-17T04:39:51.479Z,9.47
2017-03-17T04:40:51.489Z,9.55
2017-03-17T04:41:51.498Z,9.48
2017-03-17T04:42:51.634Z,9.51
2017-03-17T04:43:51.569Z,9.46
2017-03-17T04:44:51.592Z,9.51
2017-03-17T04:45:51.569Z,9.44
2017-03-17T04:46:51.696Z,9.43
2017-03-17T04:47:51.706Z,9.5
2017-03-17T04:48:51.717Z,9.43
2017-03-17T04:49:51.723Z,9.44
2017-03-17T04:50:51.721Z,9.44
2017-03-17T04:51:51.738Z,9.43
2017-03-17T04:52:51.434Z,9.43
2017-03-17T04:53:52.081Z,9.44
2017-03-17T04:54:51.980Z,9.43
2017-03-17T04:55:52.058Z,9.44
2017-03-17T04:56:51.839Z,9.43
2017-03-17T04:57:51.854Z,9.44
2017-03-17T04:58:51.875Z,9.43
2017-03-17T04:59:51.544Z,9.41
2017-03-17T05:00:52.001Z,9.46
2017-03-17T05:01:52.011Z,9.47
2017-03-17T05:02:52.016Z,9.47
2017-03-17T05:03:51.717Z,9.46
2017-03-17T05:04:52.022Z,9.43
2017-03-17T05:05:52.038Z,9.41
2017-03-17T05:06:52.046Z,9.5
2017-03-17T05:07:52.059Z,9.41
2017-03-17T05:08:52.067Z,9.46
2017-03-17T05:09:52.005Z,9.44
2017-03-17T05:10:52.018Z,9.43
2017-03-17T05:11:52.013Z,9.43
2017-03-17T05:12:52.039Z,9.4
2017-03-17T05:13:52.054Z,9.39
2017-03-17T05:14:52.058Z,9.39
2017-03-17T05:15:52.070Z,9.43
2017-03-17T05:16:52.073Z,9.37
2017-03-17T05:17:52.082Z,9.4
2017-03-17T05:18:51.771Z,9.37
2017-03-17T05:19:52.091Z,9.41
2017-03-17T05:20:52.170Z,9.37
2017-03-17T05:21:52.108Z,9.4
2017-03-17T05:22:52.103Z,9.41
2017-03-17T05:23:52.119Z,9.37
2017-03-17T05:24:52.136Z,9.34
2017-03-17T05:25:51.831Z,9.32
2017-03-17T05:26:52.267Z,9.36
2017-03-17T05:27:52.177Z,9.34
2017-03-17T05:28:52.189Z,9.32
2017-03-17T05:29:52.229Z,9.34
2017-03-17T05:30:52.219Z,9.31
2017-03-17T05:31:51.933Z,9.31
2017-03-17T05:32:52.251Z,9.36
2017-03-17T05:33:52.265Z,9.37
2017-03-17T05:34:52.282Z,9.32
2017-03-17T05:35:52.298Z,9.21
2017-03-17T05:36:52.310Z,9.31
2017-03-17T05:37:52.330Z,9.31
2017-03-17T05:38:52.073Z,9.22
2017-03-17T05:39:52.358Z,9.37
2017-03-17T05:40:52.394Z,9.26
2017-03-17T05:41:52.385Z,9.34
2017-03-17T05:42:52.404Z,9.25
2017-03-17T05:43:52.413Z,9.29
2017-03-17T05:44:52.435Z,9.25
2017-03-17T05:45:52.125Z,9.34
2017-03-17T05:46:52.456Z,9.36
2017-03-17T05:47:52.478Z,9.34
2017-03-17T05:48:52.484Z,9.4
2017-03-17T05:49:52.502Z,9.34
2017-03-17T05:50:52.198Z,9.37
2017-03-17T05:51:52.527Z,9.28
2017-03-17T05:52:52.542Z,9.34
2017-03-17T05:53:52.558Z,9.36
2017-03-17T05:54:52.579Z,9.39
2017-03-17T05:55:52.282Z,9.32
2017-03-17T05:56:52.600Z,9.31
2017-03-17T05:57:52.619Z,9.34
2017-03-17T05:58:52.645Z,9.36
2017-03-17T05:59:52.646Z,9.37
2017-03-17T06:00:52.661Z,9.36
2017-03-17T06:01:52.368Z,9.37
2017-03-17T06:02:52.688Z,9.36
2017-03-17T06:03:52.707Z,9.37
2017-03-17T06:04:52.718Z,9.34
2017-03-17T06:05:52.740Z,9.39
2017-03-17T06:06:52.751Z,9.36
2017-03-17T06:07:52.764Z,9.4
2017-03-17T06:08:52.792Z,9.43
2017-03-17T06:09:52.803Z,9.41
2017-03-17T06:10:52.725Z,9.47
2017-03-17T06:11:52.825Z,9.46
2017-03-17T06:12:52.523Z,9.46
2017-03-17T06:13:52.542Z,9.46
2017-03-17T06:14:52.867Z,9.44
2017-03-17T06:15:52.882Z,9.48
2017-03-17T06:16:52.894Z,9.43
2017-03-17T06:17:52.912Z,9.43
2017-03-17T06:18:52.926Z,9.43
2017-03-17T06:19:52.942Z,9.44
2017-03-17T06:20:52.953Z,9.54
2017-03-17T06:21:52.972Z,9.51
2017-03-17T06:22:52.982Z,9.41
2017-03-17T06:23:53.007Z,9.5
2017-03-17T06:24:52.732Z,9.48
2017-03-17T06:25:53.037Z,9.59
2017-03-17T06:26:53.041Z,9.5
2017-03-17T06:27:53.067Z,9.56
2017-03-17T06:28:53.072Z,9.58
2017-03-17T06:29:53.092Z,9.54
2017-03-17T06:30:53.107Z,9.65
2017-03-17T06:31:53.121Z,9.56
2017-03-17T06:32:53.132Z,9.56
2017-03-17T06:33:52.851Z,9.65
2017-03-17T06:34:52.856Z,9.68
2017-03-17T06:35:52.865Z,9.61
2017-03-17T06:36:53.190Z,9.65
2017-03-17T06:37:53.206Z,9.74
2017-03-17T06:38:53.227Z,9.69
2017-03-17T06:39:53.238Z,9.65
2017-03-17T06:40:53.250Z,9.62
2017-03-17T06:41:53.271Z,9.61
2017-03-17T06:42:52.975Z,9.72
2017-03-17T06:43:53.297Z,9.76
2017-03-17T06:44:53.312Z,9.76
2017-03-17T06:45:53.321Z,9.65
2017-03-17T06:46:53.029Z,9.65
2017-03-17T06:47:53.351Z,9.73
2017-03-17T06:48:53.376Z,9.65
2017-03-17T06:49:53.389Z,9.77
2017-03-17T06:50:53.393Z,9.74
2017-03-17T06:51:53.422Z,9.83
2017-03-17T06:52:53.431Z,9.82
2017-03-17T06:53:53.131Z,9.79
2017-03-17T06:54:53.145Z,9.76
2017-03-17T06:55:53.479Z,9.84
2017-03-17T06:56:53.489Z,9.84
2017-03-17T06:57:53.500Z,9.82
2017-03-17T06:58:53.205Z,9.84
2017-03-17T06:59:53.220Z,9.8
2017-03-17T07:00:53.578Z,9.87
2017-03-17T07:01:53.247Z,9.86
2017-03-17T07:02:53.574Z,9.83
2017-03-17T07:03:53.596Z,9.92
2017-03-17T07:04:53.604Z,9.84
2017-03-17T07:05:53.621Z,9.91
2017-03-17T07:06:53.324Z,9.92
2017-03-17T07:07:53.338Z,9.98
2017-03-17T07:08:53.663Z,9.94
2017-03-17T07:09:53.366Z,9.91
2017-03-17T07:10:53.695Z,9.97
2017-03-17T07:11:53.713Z,10.04
2017-03-17T07:12:53.418Z,9.99
2017-03-17T07:13:53.744Z,10.1
2017-03-17T07:14:53.819Z,10.01
2017-03-17T07:15:53.819Z,10.09
2017-03-17T07:16:53.784Z,10.07
2017-03-17T07:17:53.177Z,10.19
2017-03-17T07:18:53.818Z,10.09
2017-03-17T07:19:53.828Z,10.2
2017-03-17T07:20:53.848Z,10.12
2017-03-17T07:21:54.000Z,10.22
2017-03-17T07:22:53.563Z,10.25
2017-03-17T07:23:53.892Z,10.2
2017-03-17T07:24:53.910Z,10.25
2017-03-17T07:25:53.919Z,10.31
2017-03-17T07:26:53.939Z,10.34
2017-03-17T07:27:53.641Z,10.35
2017-03-17T07:28:53.969Z,10.3
2017-03-17T07:29:53.984Z,10.38
2017-03-17T07:30:53.993Z,10.35
2017-03-17T07:31:54.012Z,10.46
2017-03-17T07:32:54.028Z,10.41
2017-03-17T07:33:54.048Z,10.53
2017-03-17T07:34:54.222Z,10.59
2017-03-17T07:35:54.229Z,10.53
2017-03-17T07:36:54.187Z,10.59
2017-03-17T07:37:53.901Z,10.63
2017-03-17T07:38:53.919Z,10.64
2017-03-17T07:39:54.025Z,10.69
2017-03-17T07:40:54.034Z,10.72
2017-03-17T07:41:54.354Z,10.74
2017-03-17T07:42:54.177Z,10.72
2017-03-17T07:43:54.199Z,10.75
2017-03-17T07:44:54.217Z,10.79
2017-03-17T07:45:53.915Z,10.82
2017-03-17T07:46:54.238Z,10.81
2017-03-17T07:47:54.263Z,10.82
2017-03-17T07:48:53.960Z,10.9
2017-03-17T07:49:54.290Z,10.92
2017-03-17T07:50:54.303Z,10.92
2017-03-17T07:51:54.316Z,10.93
2017-03-17T07:52:54.333Z,10.94
2017-03-17T07:53:54.344Z,10.93
2017-03-17T07:54:54.371Z,11.1
2017-03-17T07:55:54.384Z,11.07
2017-03-17T07:56:54.402Z,11.05
2017-03-17T07:57:54.409Z,11.19
2017-03-17T07:58:54.428Z,11.11
2017-03-17T07:59:54.453Z,11.19
2017-03-17T08:00:54.455Z,11.26
2017-03-17T08:01:54.474Z,11.26
2017-03-17T08:02:54.498Z,11.36
2017-03-17T08:03:54.513Z,11.32
2017-03-17T08:04:54.526Z,11.4
2017-03-17T08:05:54.534Z,11.43
2017-03-17T08:06:54.547Z,11.33
2017-03-17T08:07:54.578Z,11.43
2017-03-17T08:08:54.579Z,11.48
2017-03-17T08:09:54.598Z,11.52
2017-03-17T08:10:54.299Z,11.44
2017-03-17T08:11:54.634Z,11.45
2017-03-17T08:12:54.647Z,11.59
2017-03-17T08:13:54.689Z,11.62
2017-03-17T08:14:54.674Z,11.63
2017-03-17T08:15:54.756Z,11.65
2017-03-17T08:16:54.793Z,11.55
2017-03-17T08:17:54.804Z,11.65
2017-03-17T08:18:54.737Z,11.6
2017-03-17T08:19:54.869Z,11.73
2017-03-17T08:20:54.867Z,11.68
2017-03-17T08:21:54.786Z,11.65
2017-03-17T08:22:54.809Z,11.7
2017-03-17T08:23:54.820Z,11.78
2017-03-17T08:24:54.837Z,11.8
2017-03-17T08:25:54.852Z,11.86
2017-03-17T08:26:54.556Z,11.75
2017-03-17T08:27:54.888Z,11.73
2017-03-17T08:28:54.905Z,11.8
2017-03-17T08:29:54.931Z,11.83
2017-03-17T08:30:54.929Z,11.87
2017-03-17T08:31:54.640Z,11.83
2017-03-17T08:32:54.964Z,11.9
2017-03-17T08:33:54.983Z,11.9
2017-03-17T08:34:55.028Z,11.84
2017-03-17T08:35:55.013Z,11.9
2017-03-17T08:36:55.035Z,11.97
2017-03-17T08:37:54.735Z,12
2017-03-17T08:38:55.069Z,11.97
2017-03-17T08:39:55.080Z,12.02
2017-03-17T08:40:55.094Z,11.95
2017-03-17T08:41:55.124Z,12
2017-03-17T08:42:54.821Z,12.09
2017-03-17T08:43:55.140Z,12.07
2017-03-17T08:44:55.159Z,12.06
2017-03-17T08:45:55.173Z,12.03
2017-03-17T08:46:55.189Z,12.13
2017-03-17T08:47:55.205Z,12.13
2017-03-17T08:48:55.241Z,12.17
2017-03-17T08:49:55.242Z,12.2
2017-03-17T08:50:55.667Z,12.12
2017-03-17T08:51:55.279Z,12.17
2017-03-17T08:52:55.295Z,12.28
2017-03-17T08:53:55.318Z,12.27
2017-03-17T08:54:55.320Z,12.29
2017-03-17T08:55:55.337Z,12.29
2017-03-17T08:56:55.361Z,12.29
2017-03-17T08:57:55.512Z,12.28
2017-03-17T08:58:55.387Z,12.28
2017-03-17T08:59:55.407Z,12.22
2017-03-17T09:00:55.113Z,12.25
2017-03-17T09:01:55.438Z,12.32
2017-03-17T09:02:55.460Z,12.39
2017-03-17T09:03:55.475Z,12.37
2017-03-17T09:04:55.486Z,12.29
2017-03-17T09:05:55.189Z,12.29
2017-03-17T09:06:55.552Z,12.37
2017-03-17T09:07:55.537Z,12.43
2017-03-17T09:08:55.248Z,12.42
2017-03-17T09:09:55.261Z,12.53
2017-03-17T09:10:55.273Z,12.43
2017-03-17T09:11:55.292Z,12.46
2017-03-17T09:12:55.620Z,12.45
2017-03-17T09:13:55.641Z,12.47
2017-03-17T09:14:55.653Z,12.5
2017-03-17T09:15:55.669Z,12.53
2017-03-17T09:16:55.687Z,12.62
2017-03-17T09:17:55.706Z,12.54
2017-03-17T09:18:55.728Z,12.58
2017-03-17T09:19:55.736Z,12.65
2017-03-17T09:20:55.758Z,12.61
2017-03-17T09:21:55.772Z,12.61
2017-03-17T09:22:55.804Z,12.61
2017-03-17T09:23:55.807Z,12.65
2017-03-17T09:24:55.826Z,12.62
2017-03-17T09:25:55.843Z,12.7
2017-03-17T09:26:55.859Z,12.72
2017-03-17T09:27:55.876Z,12.68
2017-03-17T09:28:55.888Z,12.65
2017-03-17T09:29:55.914Z,12.72
2017-03-17T09:30:55.921Z,12.73
2017-03-17T09:31:55.937Z,12.8
2017-03-17T09:32:55.960Z,12.76
2017-03-17T09:33:55.666Z,12.82
2017-03-17T09:34:56.007Z,12.82
2017-03-17T09:35:56.004Z,12.85
2017-03-17T09:36:56.020Z,12.94
2017-03-17T09:37:56.042Z,12.91
2017-03-17T09:38:56.057Z,13
2017-03-17T09:39:56.072Z,12.98
2017-03-17T09:40:56.096Z,13.08
2017-03-17T09:41:56.104Z,13.03
2017-03-17T09:42:56.120Z,13.09
2017-03-17T09:43:56.144Z,13.08
2017-03-17T09:44:56.181Z,13.16
2017-03-17T09:45:56.175Z,13.13
2017-03-17T09:46:56.195Z,13.22
2017-03-17T09:47:56.205Z,13.3
2017-03-17T09:48:56.234Z,13.27
2017-03-17T09:49:56.246Z,13.31
2017-03-17T09:50:56.262Z,13.31
2017-03-17T09:51:56.280Z,13.38
2017-03-17T09:52:56.296Z,13.3
2017-03-17T09:53:56.317Z,13.39
2017-03-17T09:54:56.331Z,13.42
2017-03-17T09:55:56.347Z,13.5
2017-03-17T09:56:56.364Z,13.57
2017-03-17T09:57:56.392Z,13.56
2017-03-17T09:58:56.406Z,13.57
2017-03-17T09:59:56.417Z,13.67
2017-03-17T10:00:56.431Z,13.65
2017-03-17T10:01:56.448Z,13.68
2017-03-17T10:02:56.471Z,13.7
2017-03-17T10:03:56.491Z,13.7
2017-03-17T10:04:56.510Z,13.7
2017-03-17T10:05:56.527Z,13.68
2017-03-17T10:06:56.536Z,13.79
2017-03-17T10:07:56.553Z,13.85
2017-03-17T10:08:56.571Z,13.79
2017-03-17T10:09:56.601Z,13.86
2017-03-17T10:10:56.700Z,13.87
2017-03-17T10:11:56.628Z,13.97
2017-03-17T10:12:56.646Z,13.96
2017-03-17T10:13:56.796Z,14.07
2017-03-17T10:14:56.689Z,14.05
2017-03-17T10:15:56.828Z,14.08
2017-03-17T10:16:56.839Z,14.26
2017-03-17T10:17:56.735Z,14.17
2017-03-17T10:18:56.753Z,14.2
2017-03-17T10:19:56.769Z,14.28
2017-03-17T10:20:56.786Z,14.26
2017-03-17T10:21:56.808Z,14.3
2017-03-17T10:22:56.519Z,14.43
2017-03-17T10:23:56.842Z,14.36
2017-03-17T10:24:56.890Z,14.43
2017-03-17T10:25:56.881Z,14.53
2017-03-17T10:26:56.950Z,14.51
2017-03-17T10:27:56.919Z,14.66
2017-03-17T10:28:56.933Z,14.72
2017-03-17T10:29:56.634Z,14.78
2017-03-17T10:30:56.658Z,14.79
2017-03-17T10:31:56.983Z,14.77
2017-03-17T10:32:56.999Z,14.86
2017-03-17T10:33:57.015Z,14.97
2017-03-17T10:34:57.039Z,14.97
2017-03-17T10:35:57.064Z,15.03
2017-03-17T10:36:57.075Z,15.04
2017-03-17T10:37:57.099Z,15.15
2017-03-17T10:38:57.118Z,15.09
2017-03-17T10:39:57.133Z,15.09
2017-03-17T10:40:56.834Z,15.22
2017-03-17T10:41:56.860Z,15.14
2017-03-17T10:42:57.186Z,15.19
2017-03-17T10:43:57.335Z,15.31
2017-03-17T10:44:57.227Z,15.33
2017-03-17T10:45:57.243Z,15.4
2017-03-17T10:46:57.285Z,15.47
2017-03-17T10:47:57.287Z,15.4
2017-03-17T10:48:57.319Z,15.36
2017-03-17T10:49:57.323Z,15.44
2017-03-17T10:50:57.330Z,15.33
2017-03-17T10:51:57.353Z,15.42
2017-03-17T10:52:57.375Z,15.46
2017-03-17T10:53:57.396Z,15.35
2017-03-17T10:54:57.411Z,15.33
2017-03-17T10:55:57.551Z,15.42
2017-03-17T10:56:57.448Z,15.47
2017-03-17T10:57:57.504Z,15.44
2017-03-17T10:58:57.172Z,15.47
2017-03-17T10:59:57.654Z,15.43
2017-03-17T11:00:57.521Z,15.47
2017-03-17T11:01:57.565Z,15.57
2017-03-17T11:02:57.687Z,15.49
2017-03-17T11:03:57.269Z,15.57
2017-03-17T11:04:57.719Z,15.52
2017-03-17T11:05:57.610Z,15.49
2017-03-17T11:06:57.635Z,15.52
2017-03-17T11:07:57.662Z,15.58
2017-03-17T11:08:57.797Z,15.51
2017-03-17T11:09:57.814Z,15.52
2017-03-17T11:10:57.731Z,15.51
2017-03-17T11:11:57.412Z,15.57
2017-03-17T11:12:57.748Z,15.52
2017-03-17T11:13:57.857Z,15.57
2017-03-17T11:14:57.789Z,15.57
2017-03-17T11:15:57.801Z,15.46
2017-03-17T11:16:57.822Z,15.54
2017-03-17T11:17:57.842Z,15.46
2017-03-17T11:18:57.990Z,15.55
2017-03-17T11:19:57.570Z,15.54
2017-03-17T11:20:58.021Z,15.52
2017-03-17T11:21:58.048Z,15.51
2017-03-17T11:22:57.636Z,15.51
2017-03-17T11:23:57.957Z,15.54
2017-03-17T11:24:58.101Z,15.52
2017-03-17T11:25:57.997Z,15.55
2017-03-17T11:26:58.016Z,15.54
2017-03-17T11:27:58.026Z,15.57
2017-03-17T11:28:58.055Z,15.58
2017-03-17T11:29:58.076Z,15.64
2017-03-17T11:30:58.097Z,15.59
2017-03-17T11:31:57.797Z,15.64
2017-03-17T11:32:58.133Z,15.7
2017-03-17T11:33:58.159Z,15.67
2017-03-17T11:34:58.288Z,15.62
2017-03-17T11:35:57.968Z,15.75
2017-03-17T11:36:58.212Z,15.76
2017-03-17T11:37:57.914Z,15.8
2017-03-17T11:38:58.243Z,15.79
2017-03-17T11:39:58.261Z,15.76
2017-03-17T11:40:58.280Z,15.94
2017-03-17T11:41:58.437Z,15.9
2017-03-17T11:42:58.475Z,15.88
2017-03-17T11:43:58.431Z,15.98
2017-03-17T11:44:58.359Z,16
2017-03-17T11:45:58.382Z,15.94
2017-03-17T11:46:58.395Z,16.02
2017-03-17T11:47:58.419Z,16.05
2017-03-17T11:48:58.447Z,16.09
2017-03-17T11:49:58.463Z,16.17
2017-03-17T11:50:58.522Z,16.21
2017-03-17T11:51:58.524Z,16.24
2017-03-17T11:52:58.510Z,16.21
2017-03-17T11:53:58.536Z,16.24
2017-03-17T11:54:58.559Z,16.32
2017-03-17T11:55:58.259Z,16.35
2017-03-17T11:56:58.319Z,16.41
2017-03-17T11:57:58.616Z,16.49
2017-03-17T11:58:58.758Z,16.46
2017-03-17T11:59:58.746Z,16.51
2017-03-17T12:00:58.557Z,16.51
2017-03-17T12:01:58.877Z,16.58
2017-03-17T12:02:58.528Z,16.56
2017-03-17T12:03:58.573Z,16.56
2017-03-17T12:04:58.583Z,16.53
2017-03-17T12:05:58.901Z,16.57
2017-03-17T12:06:58.932Z,16.64
2017-03-17T12:07:58.941Z,16.6
2017-03-17T12:08:58.633Z,16.64
2017-03-17T12:09:58.999Z,16.65
2017-03-17T12:10:58.686Z,16.65
2017-03-17T12:11:59.006Z,16.6
2017-03-17T12:12:58.703Z,16.56
2017-03-17T12:13:58.711Z,16.53
2017-03-17T12:14:58.723Z,16.5
2017-03-17T12:15:59.070Z,16.42
2017-03-17T12:16:59.079Z,16.43
2017-03-17T12:17:58.774Z,16.38
2017-03-17T12:18:59.123Z,16.38
2017-03-17T12:19:58.777Z,16.21
2017-03-17T12:20:58.866Z,16.28
2017-03-17T12:21:58.780Z,16.2
2017-03-17T12:22:59.106Z,16.2
2017-03-17T12:23:58.820Z,16.15
2017-03-17T12:24:58.839Z,16.13
2017-03-17T12:25:59.164Z,16.08
2017-03-17T12:26:59.186Z,16.1
2017-03-17T12:27:59.208Z,16
2017-03-17T12:28:59.234Z,15.94
2017-03-17T12:29:59.333Z,15.95
2017-03-17T12:30:59.266Z,15.94
2017-03-17T12:31:59.284Z,15.92
2017-03-17T12:32:59.300Z,15.86
2017-03-17T12:33:59.466Z,15.83
2017-03-17T12:34:59.472Z,15.77
2017-03-17T12:35:59.370Z,15.72
2017-03-17T12:36:59.192Z,15.72
2017-03-17T12:37:59.408Z,15.68
2017-03-17T12:38:59.433Z,15.59
2017-03-17T12:39:59.449Z,15.62
2017-03-17T12:40:59.583Z,15.52
2017-03-17T12:41:59.481Z,15.51
2017-03-17T12:42:59.636Z,15.47
2017-03-17T12:43:59.525Z,15.49
2017-03-17T12:44:59.544Z,15.4
2017-03-17T12:45:59.685Z,15.36
2017-03-17T12:46:59.699Z,15.37
2017-03-17T12:47:59.602Z,15.36
2017-03-17T12:48:59.620Z,15.42
2017-03-17T12:49:59.638Z,15.37
2017-03-17T12:50:59.668Z,15.36
2017-03-17T12:51:59.687Z,15.29
2017-03-17T12:52:59.834Z,15.39
2017-03-17T12:53:59.938Z,15.29
2017-03-17T12:54:59.863Z,15.18
2017-03-17T12:55:59.883Z,15.31
2017-03-17T12:56:59.779Z,15.36
2017-03-17T12:57:59.802Z,15.28
2017-03-17T12:58:59.817Z,15.22
2017-03-17T12:59:59.833Z,15.28
2017-03-17T13:00:59.678Z,15.35
2017-03-17T13:01:59.872Z,15.37
2017-03-17T13:03:00.016Z,15.4
2017-03-17T13:03:59.914Z,15.35
2017-03-17T13:05:00.060Z,15.29
2017-03-17T13:06:00.086Z,15.33